Time;durP1;ratioP1;P1;durP2;ratioP2;P2;SDS_P1;SDS_P2;PMS_P1;PMS_P2;Temp;Humidity;BMP_temperature;BMP_pressure;BME280_temperature;BME280_humidity;BME280_pressure;Samples;Min_cycle;Max_cycle;Signal;HPM_P1;HPM_P2
2022/06/02 00:00:07;;;;;;;4.18;3.88;;;;;;;11.48;60.94;100984.56;5031908;28;20033;-17
2022/06/02 00:03:08;;;;;;;4.20;3.90;;;;;;;11.42;60.78;100972.28;5030805;28;20099;-18
2022/06/02 00:06:17;;;;;;;4.32;4.03;;;;;;;11.41;61.06;100984.59;5033069;28;20072;-16
2022/06/02 00:08:58;;;;;;;4.35;4.05;;;;;;;11.33;60.64;100981.16;4998126;28;20021;-17
2022/06/02 00:11:53;;;;;;;4.32;3.92;;;;;;;11.31;60.94;100988.22;5032507;28;20128;-19
2022/06/02 00:14:32;;;;;;;4.38;4.00;;;;;;;11.23;60.86;100985.63;5028665;28;20041;-18
2022/06/02 00:17:44;;;;;;;4.15;3.92;;;;;;;11.19;61.29;100998.84;5020916;28;20026;-16
2022/06/02 00:20:30;;;;;;;;;;;;;;;11.19;60.97;100985.63;5022565;28;20042;-19
2022/06/02 00:23:09;;;;;;;4.20;3.88;;;;;;;11.13;61.34;100995.38;5032095;28;19966;-21
2022/06/02 00:25:41;;;;;;;4.95;4.55;;;;;;;11.09;61.09;100990.09;5034205;28;20032;-18
2022/06/02 00:28:21;;;;;;;4.43;4.13;;;;;;;11.06;60.77;100988.38;5031700;28;20103;-17
2022/06/02 00:31:03;;;;;;;4.23;3.93;;;;;;;10.98;61.18;100990.19;5030356;28;20036;-17
2022/06/02 00:33:58;;;;;;;4.60;4.30;;;;;;;10.96;61.21;101000.75;5033858;28;20026;-19
2022/06/02 00:36:32;;;;;;;4.82;4.45;;;;;;;10.91;61.17;101005.19;5029160;28;20029;-18
2022/06/02 00:38:58;;;;;;;4.38;4.07;;;;;;;10.83;61.22;101002.56;5018820;28;20053;-19
2022/06/02 00:42:10;;;;;;;4.75;4.35;;;;;;;10.82;61.38;101008.72;5027146;28;20440;-20
2022/06/02 00:44:48;;;;;;;4.57;4.25;;;;;;;10.79;61.25;101000.81;5029580;28;20074;-18
2022/06/02 00:47:53;;;;;;;4.72;4.32;;;;;;;10.75;61.05;101015.81;5024778;28;20361;-17
2022/06/02 00:50:42;;;;;;;4.35;4.05;;;;;;;10.71;61.41;101019.31;5030214;28;20032;-17
2022/06/02 00:53:10;;;;;;;4.60;4.30;;;;;;;10.69;61.53;101020.22;5030052;28;20046;-18
2022/06/02 00:59:18;;;;;;;4.75;4.45;;;;;;;10.58;61.00;101023.78;5029236;28;20029;-19
2022/06/02 01:01:44;;;;;;;4.90;4.50;;;;;;;10.54;61.42;101022.03;5026491;28;20112;-19
2022/06/02 01:04:11;;;;;;;4.68;4.28;;;;;;;10.50;61.23;101030.81;5028441;28;20160;-20
2022/06/02 01:06:50;;;;;;;4.53;4.22;;;;;;;10.45;61.09;101025.59;5026632;28;20065;-19
2022/06/02 01:09:34;;;;;;;4.75;4.45;;;;;;;10.45;61.29;101029.97;5030271;28;20059;-19
2022/06/02 01:12:24;;;;;;;4.50;4.20;;;;;;;10.39;61.27;101038.75;5040212;28;20145;-19
2022/06/02 01:15:17;;;;;;;4.88;4.47;;;;;;;10.32;61.27;101032.63;5029627;28;20021;-19
2022/06/02 01:17:55;;;;;;;5.03;4.63;;;;;;;10.30;61.67;101041.41;5030029;28;20025;-19
2022/06/02 01:20:33;;;;;;;4.95;4.55;;;;;;;10.22;61.42;101038.78;5024947;28;20038;-19
2022/06/02 01:23:21;;;;;;;4.88;4.50;;;;;;;10.22;61.53;101033.50;5041028;28;20444;-19
2022/06/02 01:26:12;;;;;;;4.88;4.57;;;;;;;10.17;61.46;101037.91;5030325;28;20100;-20
2022/06/02 01:28:46;;;;;;;4.93;4.53;;;;;;;10.14;61.38;101038.81;5029340;28;20026;-17
2022/06/02 01:31:19;;;;;;;5.10;4.70;;;;;;;10.08;61.62;101041.44;5028678;28;20326;-19
2022/06/02 01:33:59;;;;;;;5.38;4.90;;;;;;;10.06;61.46;101037.91;5029818;28;20493;-19
2022/06/02 01:36:36;;;;;;;4.45;4.15;;;;;;;9.98;61.70;101043.19;5033185;28;20040;-18
2022/06/02 01:39:17;;;;;;;4.85;4.53;;;;;;;9.95;61.85;101049.34;5035379;28;20016;-18
2022/06/02 01:42:17;;;;;;;;;;;;;;;9.92;61.59;101049.34;5031663;28;20021;-17
2022/06/02 01:45:13;;;;;;;4.53;4.13;;;;;;;9.89;61.51;101059.88;5037088;28;19912;-17
2022/06/02 01:47:43;;;;;;;4.80;4.50;;;;;;;9.83;61.49;101059.88;5031661;28;20032;-18
2022/06/02 01:51:05;;;;;;;4.30;4.00;;;;;;;9.78;61.84;101056.38;5024946;28;20083;-17
2022/06/02 01:53:37;;;;;;;4.82;4.30;;;;;;;9.77;61.66;101065.16;4968519;28;20425;-17
2022/06/02 01:56:34;;;;;;;4.30;3.92;;;;;;;9.71;61.14;101061.63;5027337;28;20069;-17
2022/06/02 01:59:14;;;;;;;4.88;4.43;;;;;;;9.68;61.64;101052.84;5026244;28;20431;-19
2022/06/02 02:01:58;;;;;;;4.35;4.05;;;;;;;9.64;61.55;101054.63;5029055;28;20083;-18
2022/06/02 02:04:52;;;;;;;4.80;4.40;;;;;;;9.62;61.45;101062.53;5030284;28;20033;-18
2022/06/02 02:07:20;;;;;;;4.70;4.30;;;;;;;9.58;61.75;101066.03;5027439;28;20052;-16
2022/06/02 02:10:01;;;;;;;4.70;4.40;;;;;;;9.59;61.69;101070.41;5030439;28;20025;-18
2022/06/02 02:12:53;;;;;;;4.40;4.10;;;;;;;9.60;61.48;101068.63;5030623;28;20029;-17
2022/06/02 02:15:30;;;;;;;4.70;4.40;;;;;;;9.47;61.87;101073.03;5029047;28;20550;-19
2022/06/02 02:18:32;;;;;;;5.10;4.70;;;;;;;9.47;61.93;101073.91;5031680;28;20033;-18
2022/06/02 02:21:44;;;;;;;4.72;4.32;;;;;;;9.43;61.85;101080.03;5021251;28;20040;-18
2022/06/02 02:24:34;;;;;;;5.47;4.55;;;;;;;9.37;61.89;101073.00;4989365;28;20030;-19
2022/06/02 02:27:05;;;;;;;5.25;4.85;;;;;;;9.38;61.89;101081.78;5026588;28;20037;-19
2022/06/02 02:29:50;;;;;;;4.47;4.18;;;;;;;9.35;62.11;101079.13;5044626;28;20491;-17
2022/06/02 02:32:58;;;;;;;4.72;4.40;;;;;;;9.30;61.92;101071.22;5044163;28;20033;-16
2022/06/02 02:35:39;;;;;;;4.50;4.20;;;;;;;9.26;61.81;101077.34;5027217;28;21775;-19
2022/06/02 02:38:09;;;;;;;5.28;4.88;;;;;;;9.24;61.99;101073.84;5029422;28;20043;-18
2022/06/02 02:40:47;;;;;;;5.30;4.90;;;;;;;9.19;62.17;101088.72;5026892;28;20025;-17
2022/06/02 02:43:18;;;;;;;5.32;4.82;;;;;;;9.22;62.02;101079.13;5039863;28;20028;-17
2022/06/02 02:46:01;;;;;;;4.80;4.50;;;;;;;9.19;61.80;101083.47;5025007;28;20026;-17
2022/06/02 02:48:35;;;;;;;5.32;4.93;;;;;;;9.16;61.71;101083.44;5027021;28;20108;-18
2022/06/02 02:51:27;;;;;;;5.18;4.78;;;;;;;9.10;62.04;101081.69;5029836;28;20061;-17
2022/06/02 02:54:21;;;;;;;5.15;4.75;;;;;;;9.11;62.02;101076.44;5020563;28;20038;-17
2022/06/02 02:56:58;;;;;;;4.60;4.30;;;;;;;9.06;61.96;101082.53;5004545;28;20029;-16
2022/06/02 02:59:46;;;;;;;4.82;4.43;;;;;;;9.01;62.10;101079.91;5022248;28;20459;-18
2022/06/02 03:02:28;;;;;;;4.63;4.28;;;;;;;9.02;62.05;101080.78;5026803;28;20017;-18
2022/06/02 03:05:11;;;;;;;4.75;4.45;;;;;;;8.92;62.21;101093.00;5026536;28;20025;-19
2022/06/02 03:07:36;;;;;;;4.80;4.50;;;;;;;8.93;62.16;101092.13;5023251;28;20116;-18
2022/06/02 03:10:16;;;;;;;4.97;4.68;;;;;;;8.88;62.20;101094.78;5030030;28;20550;-18
2022/06/02 03:12:57;;;;;;;4.95;4.55;;;;;;;8.85;62.15;101094.75;5028333;28;20468;-18
2022/06/02 03:15:24;;;;;;;5.67;5.20;;;;;;;8.90;62.12;101107.94;5028995;28;20390;-19
2022/06/02 03:18:09;;;;;;;5.20;4.80;;;;;;;8.80;62.26;101113.13;5037927;28;20701;-20
2022/06/02 03:20:37;;;;;;;5.22;4.82;;;;;;;8.78;62.17;101120.16;5027621;22;20045;-20
2022/06/02 03:23:13;;;;;;;5.30;4.90;;;;;;;8.74;62.37;101123.63;5007450;28;20030;-20
2022/06/02 03:25:42;;;;;;;5.25;4.85;;;;;;;8.78;62.05;101127.16;5014521;28;20029;-20
2022/06/02 03:28:23;;;;;;;5.25;4.85;;;;;;;8.78;62.43;101127.16;5000236;28;20030;-20
2022/06/02 03:31:00;;;;;;;5.60;5.10;;;;;;;8.71;62.38;101127.09;5017465;28;20025;-20
2022/06/02 03:33:51;;;;;;;5.53;5.13;;;;;;;8.66;62.50;101128.84;5008432;28;20650;-20
2022/06/02 03:36:32;;;;;;;5.18;4.78;;;;;;;8.73;62.37;101132.38;5017103;28;20030;-20
2022/06/02 03:38:58;;;;;;;;;;;;;;;8.64;62.40;101132.31;5009744;28;20039;-20
2022/06/02 03:41:48;;;;;;;5.68;5.18;;;;;;;8.60;62.61;101132.31;5009895;28;20012;-20
2022/06/02 03:44:44;;;;;;;5.05;4.65;;;;;;;8.60;62.48;101137.56;4990165;28;20588;-20
2022/06/02 03:47:35;;;;;;;5.10;4.70;;;;;;;8.65;62.60;101134.97;5008380;28;20022;-20
2022/06/02 03:50:09;;;;;;;5.20;4.80;;;;;;;8.56;62.75;101146.31;4996140;28;20039;-20
2022/06/02 03:53:15;;;;;;;5.70;5.20;;;;;;;8.55;62.54;101139.28;5005122;28;20471;-20
2022/06/02 03:55:52;;;;;;;5.72;5.32;;;;;;;8.55;62.65;101149.81;5016179;28;20556;-20
2022/06/02 03:58:48;;;;;;;5.47;5.07;;;;;;;8.53;62.66;101153.25;5018265;28;20037;-20
2022/06/02 04:01:19;;;;;;;5.60;5.20;;;;;;;8.57;62.98;101153.31;5019965;28;20037;-20
2022/06/02 04:04:01;;;;;;;5.88;5.47;;;;;;;8.56;62.83;101159.44;5003534;28;20080;-20
2022/06/02 04:06:55;;;;;;;6.00;5.25;;;;;;;8.56;62.73;101155.94;5017601;28;20029;-20
2022/06/02 04:09:20;;;;;;;5.55;5.15;;;;;;;8.50;62.98;101164.63;5017723;28;20096;-20
2022/06/02 04:15:29;;;;;;;5.50;5.10;;;;;;;8.55;62.71;101173.47;4995630;28;20032;-20
2022/06/02 04:21:36;;;;;;;5.50;5.10;;;;;;;8.60;62.71;101169.13;5019417;28;20045;-20
2022/06/02 04:24:21;;;;;;;6.10;5.47;;;;;;;8.66;62.83;101178.78;5016882;28;20091;-20
2022/06/02 04:27:26;;;;;;;5.63;5.20;;;;;;;8.71;62.57;101181.47;4997302;28;20044;-20
2022/06/02 04:30:00;;;;;;;5.80;5.30;;;;;;;8.78;63.00;101185.91;4983146;28;20042;-20
2022/06/02 04:32:45;;;;;;;6.22;5.40;;;;;;;8.83;63.21;101184.16;5007463;28;20029;-20
2022/06/02 04:35:28;;;;;;;5.85;5.35;;;;;;;8.87;63.25;101192.09;5012787;28;20439;-20
2022/06/02 04:38:17;;;;;;;6.38;5.88;;;;;;;8.87;63.18;101192.94;5008685;28;20030;-20
2022/06/02 04:41:13;;;;;;;6.68;6.07;;;;;;;8.93;63.15;101197.38;5013555;28;20073;-20
2022/06/02 04:43:48;;;;;;;6.22;5.65;;;;;;;8.92;63.29;101195.63;5017374;28;20554;-20
2022/06/02 04:46:29;;;;;;;6.40;5.80;;;;;;;8.95;63.20;101207.06;5008029;28;20051;-20
2022/06/02 04:49:10;;;;;;;7.25;6.40;;;;;;;9.05;63.20;101202.72;5007870;28;20036;-20
2022/06/02 04:51:50;;;;;;;6.35;5.85;;;;;;;9.06;63.50;101208.84;5007125;28;20451;-20
2022/06/02 04:54:27;;;;;;;5.80;5.40;;;;;;;9.14;63.31;101208.91;4994505;28;20129;-20
2022/06/02 04:57:12;;;;;;;6.47;5.97;;;;;;;9.18;63.33;101218.56;4997658;28;20030;-20
2022/06/02 04:59:51;;;;;;;6.13;5.63;;;;;;;9.23;63.27;101215.09;4994286;28;20418;-20
2022/06/02 05:02:23;;;;;;;6.32;5.82;;;;;;;9.26;63.13;101216.84;5017753;28;20028;-20
2022/06/02 05:04:59;;;;;;;6.40;5.80;;;;;;;9.33;63.58;101229.19;4997105;28;20070;-20
2022/06/02 05:07:41;;;;;;;6.82;6.22;;;;;;;9.41;64.00;101228.34;4996441;28;20022;-20
2022/06/02 05:10:39;;;;;;;6.13;5.63;;;;;;;9.51;64.06;101232.78;4977223;28;20049;-20
2022/06/02 05:13:26;;;;;;;8.35;6.68;;;;;;;9.59;64.18;101231.06;5009285;28;20431;-20
2022/06/02 05:16:12;;;;;;;6.82;6.22;;;;;;;9.66;64.12;101238.97;5000387;28;20380;-20
2022/06/02 05:19:05;;;;;;;7.47;6.78;;;;;;;9.73;64.25;101236.38;4991468;28;20109;-20
2022/06/02 05:21:39;;;;;;;7.60;6.88;;;;;;;9.81;64.55;101240.78;5009856;28;20031;-20
2022/06/02 05:24:19;;;;;;;6.88;6.28;;;;;;;9.87;64.57;101244.31;5007692;28;20022;-20
2022/06/02 05:27:15;;;;;;;6.93;6.32;;;;;;;9.93;64.16;101246.09;5010304;28;20029;-20
2022/06/02 05:30:08;;;;;;;7.47;6.75;;;;;;;9.97;64.78;101253.13;5000071;28;20075;-20
2022/06/02 05:33:01;;;;;;;7.03;6.32;;;;;;;10.03;66.24;101247.00;5004909;28;20112;-20
2022/06/02 05:35:41;;;;;;;7.75;6.97;;;;;;;10.12;65.41;101262.84;5008367;28;20036;-20
2022/06/02 05:38:44;;;;;;;8.00;7.30;;;;;;;10.21;66.13;101255.81;5005969;28;20045;-20
2022/06/02 05:41:37;;;;;;;8.75;7.97;;;;;;;10.30;66.01;101260.25;5009900;28;20084;-20
2022/06/02 05:44:44;;;;;;;8.73;7.82;;;;;;;10.39;67.43;101265.50;5008558;28;20479;-20
2022/06/02 05:47:28;;;;;;;8.75;7.95;;;;;;;10.47;66.53;101262.94;4914827;29;20430;-20
2022/06/02 05:50:31;;;;;;;9.00;8.10;;;;;;;10.54;66.83;101269.09;5004534;28;20135;-20
2022/06/02 05:53:40;;;;;;;8.77;7.97;;;;;;;10.64;67.24;101269.06;5007360;28;20428;-20
2022/06/02 05:56:39;;;;;;;7.60;6.90;;;;;;;10.74;65.95;101272.59;4994864;28;20026;-20
2022/06/02 05:59:35;;;;;;;7.97;7.28;;;;;;;10.85;67.03;101275.25;4993343;28;20395;-20
2022/06/02 06:02:39;;;;;;;7.85;7.15;;;;;;;10.95;66.20;101273.47;5007039;28;20034;-20
2022/06/02 06:05:13;;;;;;;8.30;7.60;;;;;;;11.07;67.02;101275.19;4976429;28;20030;-20
2022/06/02 06:08:01;;;;;;;8.48;7.68;;;;;;;11.19;67.87;101266.38;5014930;28;20018;-20
2022/06/02 06:10:53;;;;;;;8.40;7.70;;;;;;;11.27;67.62;101271.66;5005645;28;20037;-20
2022/06/02 06:13:53;;;;;;;8.65;7.85;;;;;;;11.39;67.64;101276.91;5007064;28;20022;-20
2022/06/02 06:16:29;;;;;;;8.60;7.88;;;;;;;11.48;66.75;101281.28;5011784;28;20025;-20
2022/06/02 06:19:08;;;;;;;8.75;7.95;;;;;;;11.61;67.27;101282.09;4976493;28;20117;-20
2022/06/02 06:21:55;;;;;;;8.73;7.88;;;;;;;11.73;66.66;101285.56;4991936;28;20025;-20
2022/06/02 06:24:44;;;;;;;8.32;7.53;;;;;;;11.86;66.68;101279.38;5007507;28;20488;-20
2022/06/02 06:27:34;;;;;;;9.25;8.38;;;;;;;12.01;67.02;101286.34;5006180;28;20029;-20
2022/06/02 06:30:21;;;;;;;9.20;8.32;;;;;;;12.16;67.24;101285.41;5009181;28;20029;-20
2022/06/02 06:33:02;;;;;;;9.05;8.18;;;;;;;12.28;67.30;101291.53;5006893;28;20436;-20
2022/06/02 06:35:30;;;;;;;;;;;;;;;12.35;66.72;101295.88;4972109;28;20041;-20
2022/06/02 06:38:05;;;;;;;8.68;7.85;;;;;;;12.41;66.74;101298.47;5005954;28;19916;-20
2022/06/02 06:40:42;;;;;;;8.30;7.35;;;;;;;12.42;65.80;101297.59;5010066;28;20100;-20
2022/06/02 06:43:33;;;;;;;7.63;6.90;;;;;;;12.48;65.76;101301.09;5008534;28;20022;-20
2022/06/02 06:46:24;;;;;;;7.90;7.20;;;;;;;12.57;65.94;101301.00;5014599;28;20025;-20
2022/06/02 06:49:09;;;;;;;7.90;7.25;;;;;;;12.63;64.97;101298.31;5009657;28;20026;-20
2022/06/02 06:51:54;;;;;;;8.52;7.75;;;;;;;12.78;65.68;101309.69;5010957;28;20503;-20
2022/06/02 06:54:28;;;;;;;7.75;7.05;;;;;;;12.87;65.57;101306.94;4996387;28;20087;-20
2022/06/02 06:57:07;;;;;;;7.50;6.70;;;;;;;12.95;65.33;101307.75;5012051;28;20041;-20
2022/06/02 06:59:58;;;;;;;7.57;6.82;;;;;;;13.04;65.37;101311.25;5012174;28;20093;-20
2022/06/02 07:03:02;;;;;;;6.63;6.13;;;;;;;13.09;65.37;101317.34;5011066;28;20179;-20
2022/06/02 07:05:38;;;;;;;8.10;7.40;;;;;;;13.25;64.80;101320.75;5009839;28;20395;-20
2022/06/02 07:08:17;;;;;;;6.80;6.18;;;;;;;13.38;64.65;101321.50;5012659;28;20050;-20
2022/06/02 07:10:48;;;;;;;7.80;7.10;;;;;;;13.54;65.26;101326.66;5012768;28;20014;-20
2022/06/02 07:13:26;;;;;;;8.68;6.53;;;;;;;13.64;64.38;101325.66;4997070;28;20073;-20
2022/06/02 07:15:56;;;;;;;7.63;6.65;;;;;;;13.71;64.46;101321.19;4983358;28;20109;-21
2022/06/02 07:18:39;;;;;;;7.20;6.53;;;;;;;13.80;64.32;101325.47;5013690;28;20144;-21
2022/06/02 07:21:37;;;;;;;8.07;7.38;;;;;;;13.88;63.87;101325.38;4996876;28;20057;-21
2022/06/02 07:24:21;;;;;;;7.07;6.47;;;;;;;13.96;64.76;101324.41;4979888;28;20072;-21
2022/06/02 07:26:55;;;;;;;8.30;7.50;;;;;;;14.14;64.18;101319.72;5013308;28;20029;-21
2022/06/02 07:29:42;;;;;;;7.55;6.80;;;;;;;14.31;63.52;101319.50;4994189;28;20020;-21
2022/06/02 07:32:35;;;;;;;8.30;7.60;;;;;;;14.47;64.10;101321.91;5011884;28;20018;-20
2022/06/02 07:38:44;;;;;;;8.02;7.32;;;;;;;14.71;62.93;101318.00;5009811;28;20108;-20
2022/06/02 07:41:34;;;;;;;7.20;6.57;;;;;;;14.78;63.15;101324.16;5012923;28;20095;-21
2022/06/02 07:44:14;;;;;;;7.65;6.93;;;;;;;14.87;63.35;101318.66;5009914;28;20526;-20
2022/06/02 07:47:02;;;;;;;8.25;7.55;;;;;;;14.96;63.07;101328.28;4996958;28;20026;-21
2022/06/02 07:49:52;;;;;;;6.95;6.32;;;;;;;15.00;62.68;101329.97;4996755;28;20057;-20
2022/06/02 07:52:31;;;;;;;6.90;6.30;;;;;;;15.05;62.47;101331.66;5017503;28;20029;-21
2022/06/02 07:55:20;;;;;;;6.53;6.03;;;;;;;15.08;62.45;101326.31;5010496;28;20369;-21
2022/06/02 07:58:04;;;;;;;6.45;5.80;;;;;;;15.19;62.23;101331.41;4984573;28;20156;-21
2022/06/02 08:00:35;;;;;;;6.65;6.05;;;;;;;15.31;62.51;101330.31;5010325;28;20037;-21
2022/06/02 08:06:50;;;;;;;5.97;5.35;;;;;;;15.57;62.08;101334.28;4998092;28;20427;-21
2022/06/02 08:09:27;;;;;;;5.85;5.20;;;;;;;15.68;61.53;101331.41;5012381;28;20056;-21
2022/06/02 08:12:27;;;;;;;6.82;5.80;;;;;;;15.83;61.62;101346.16;5009029;28;20383;-21
2022/06/02 08:15:18;;;;;;;5.53;5.03;;;;;;;15.93;61.28;101338.88;4994213;28;20061;-20
2022/06/02 08:18:02;;;;;;;5.47;5.03;;;;;;;16.07;61.41;101341.28;4994905;28;20018;-20
2022/06/02 08:20:33;;;;;;;5.72;5.15;;;;;;;16.15;61.68;101336.66;5010121;28;20113;-20
2022/06/02 08:23:32;;;;;;;5.57;5.03;;;;;;;16.31;61.41;101336.31;5011303;28;20038;-20
2022/06/02 08:26:10;;;;;;;5.55;4.97;;;;;;;16.32;60.34;101333.63;4990988;28;20033;-20
2022/06/02 08:28:54;;;;;;;4.95;4.55;;;;;;;16.37;60.47;101339.72;5007257;28;20372;-20
2022/06/02 08:31:49;;;;;;;4.85;4.47;;;;;;;16.43;60.08;101341.34;5014940;28;20022;-20
2022/06/02 08:34:18;;;;;;;4.32;4.00;;;;;;;16.49;59.87;101340.34;4992671;28;20033;-21
2022/06/02 08:37:01;;;;;;;4.88;4.40;;;;;;;16.57;60.09;101345.50;5016036;28;20068;-21
2022/06/02 08:40:00;;;;;;;4.43;4.07;;;;;;;16.66;59.78;101353.25;5014592;28;20026;-20
2022/06/02 08:42:37;;;;;;;4.70;4.30;;;;;;;16.85;59.74;101359.03;5012225;28;20022;-20
2022/06/02 08:45:43;;;;;;;3.95;3.67;;;;;;;16.96;59.37;101353.44;4999816;28;20029;-21
2022/06/02 08:48:21;;;;;;;4.55;4.15;;;;;;;17.03;59.23;101352.34;5013440;28;20079;-20
2022/06/02 08:51:27;;;;;;;4.65;4.25;;;;;;;17.15;59.19;101351.22;5011073;28;20147;-21
2022/06/02 08:54:10;;;;;;;4.43;4.03;;;;;;;17.26;58.69;101352.69;5012562;28;20061;-20
2022/06/02 08:57:12;;;;;;;3.97;3.67;;;;;;;17.29;58.70;101352.63;5017407;28;20395;-20
2022/06/02 09:00:04;;;;;;;4.03;3.63;;;;;;;17.50;59.49;101359.16;5010789;28;20026;-21
2022/06/02 09:03:21;;;;;;;4.60;4.20;;;;;;;17.66;58.84;101361.41;5001133;28;20033;-21
2022/06/02 09:05:49;;;;;;;4.07;3.78;;;;;;;17.67;58.68;101361.38;4973276;28;20050;-21
2022/06/02 09:08:38;;;;;;;4.53;4.20;;;;;;;17.76;57.83;101368.25;5016381;28;20037;-21
2022/06/02 09:11:27;;;;;;;4.35;4.05;;;;;;;17.87;58.13;101375.06;5013009;28;20482;-20
2022/06/02 09:14:18;;;;;;;4.85;4.45;;;;;;;18.01;58.27;101372.00;4995534;28;20022;-21
2022/06/02 09:17:24;;;;;;;4.85;4.50;;;;;;;18.26;58.74;101372.16;4985744;28;20434;-21
2022/06/02 09:20:23;;;;;;;6.38;4.38;;;;;;;18.41;58.87;101383.31;5009820;28;20030;-21
2022/06/02 09:23:10;;;;;;;5.43;4.90;;;;;;;18.52;57.42;101382.97;5004224;23;20042;-24
2022/06/02 09:25:51;;;;;;;4.50;4.10;;;;;;;18.53;57.37;101379.38;5014571;28;20475;-23
2022/06/02 09:28:26;;;;;;;4.40;4.10;;;;;;;18.49;57.26;101389.28;5016454;28;20025;-23
2022/06/02 09:31:28;;;;;;;5.15;4.65;;;;;;;18.51;57.20;101384.75;5014253;28;20092;-23
2022/06/02 09:34:38;;;;;;;4.13;3.83;;;;;;;18.52;56.53;101377.63;4983840;28;20255;-23
2022/06/02 09:37:44;;;;;;;4.20;3.90;;;;;;;18.57;56.15;101383.69;4935646;28;20561;-23
2022/06/02 09:40:19;;;;;;;4.07;3.78;;;;;;;18.65;55.42;101388.81;4987785;28;20042;-23
2022/06/02 09:43:19;;;;;;;4.55;4.25;;;;;;;18.68;55.58;101388.72;4988859;28;20042;-23
2022/06/02 09:45:48;;;;;;;4.55;4.15;;;;;;;18.74;56.64;101395.66;4990042;28;20030;-23
2022/06/02 09:48:51;;;;;;;4.65;4.25;;;;;;;18.81;55.50;101390.03;4973633;28;20101;-23
2022/06/02 09:52:07;;;;;;;4.13;3.72;;;;;;;18.92;55.58;101375.47;4987553;28;20041;-23
2022/06/02 09:54:54;;;;;;;4.78;4.38;;;;;;;19.15;55.25;101377.41;4958551;28;20050;-23
2022/06/02 09:57:56;;;;;;;4.10;3.70;;;;;;;19.22;55.04;101380.75;4987907;28;20076;-23
2022/06/02 10:00:39;;;;;;;4.15;3.85;;;;;;;19.31;55.22;101383.09;4986439;28;20767;-23
2022/06/02 10:03:35;;;;;;;5.05;4.60;;;;;;;19.35;55.30;101376.69;4991451;28;20022;-23
2022/06/02 10:06:41;;;;;;;4.03;3.72;;;;;;;19.42;54.59;101381.84;4989926;28;20477;-23
2022/06/02 10:09:27;;;;;;;4.65;4.15;;;;;;;19.42;54.37;101384.53;4991992;28;20117;-23
2022/06/02 10:15:19;;;;;;;5.82;3.60;;;;;;;19.50;54.12;101382.44;4989760;28;20752;-23
2022/06/02 10:18:18;;;;;;;4.32;4.03;;;;;;;19.63;54.30;101371.31;4987885;28;20100;-24
2022/06/02 10:21:06;;;;;;;4.00;3.70;;;;;;;19.74;53.94;101364.63;4974383;28;20531;-24
2022/06/02 10:23:46;;;;;;;4.32;3.90;;;;;;;19.79;53.64;101375.19;4989615;28;20034;-24
2022/06/02 10:26:36;;;;;;;4.30;4.00;;;;;;;19.87;53.42;101370.41;4988118;28;20046;-23
2022/06/02 10:29:44;;;;;;;4.03;3.72;;;;;;;20.03;53.36;101364.50;4989048;28;20022;-24
2022/06/02 10:32:28;;;;;;;4.25;3.95;;;;;;;20.14;51.89;101372.13;4975466;28;20106;-24
2022/06/02 10:35:23;;;;;;;3.47;3.22;;;;;;;20.24;51.68;101372.66;4964097;28;20031;-24
2022/06/02 10:37:59;;;;;;;3.17;2.97;;;;;;;20.40;52.01;101370.22;4972789;28;20058;-23
2022/06/02 10:40:46;;;;;;;4.80;3.88;;;;;;;20.49;51.86;101382.41;4972771;28;20025;-23
2022/06/02 10:43:24;;;;;;;3.50;3.20;;;;;;;20.58;51.30;101371.28;4988324;28;20154;-23
2022/06/02 10:46:11;;;;;;;4.00;3.70;;;;;;;20.81;50.61;101380.22;4990149;28;20543;-23
2022/06/02 10:48:45;;;;;;;3.63;3.42;;;;;;;20.93;50.68;101372.63;4985038;28;20387;-23
2022/06/02 10:52:00;;;;;;;3.58;3.03;;;;;;;21.07;50.27;101378.28;4989252;28;20021;-23
2022/06/02 10:54:59;;;;;;;3.33;3.13;;;;;;;21.10;51.21;101372.78;4887080;29;20554;-23
2022/06/02 10:57:49;;;;;;;3.50;3.20;;;;;;;21.13;50.39;101372.66;4992498;28;20037;-23
2022/06/02 11:00:42;;;;;;;3.22;3.03;;;;;;;21.20;49.51;101372.41;4988538;28;20030;-23
2022/06/02 11:03:36;;;;;;;3.25;3.05;;;;;;;21.25;49.50;101367.72;4991905;28;20022;-24
2022/06/02 11:06:23;;;;;;;3.35;3.15;;;;;;;21.33;48.98;101373.63;4975518;28;20040;-23
2022/06/02 11:09:04;;;;;;;3.10;2.90;;;;;;;21.36;48.65;101373.50;4974044;28;20049;-23
2022/06/02 11:11:44;;;;;;;3.13;2.78;;;;;;;21.37;48.51;101374.34;4973813;28;20401;-23
2022/06/02 11:14:31;;;;;;;3.10;2.90;;;;;;;21.38;48.71;101366.22;4971749;28;20027;-23
2022/06/02 11:17:21;;;;;;;3.03;2.83;;;;;;;21.53;48.82;101374.53;4984302;28;20499;-23
2022/06/02 11:20:25;;;;;;;3.00;2.70;;;;;;;21.63;48.12;101367.84;4986574;28;20089;-23
2022/06/02 11:23:06;;;;;;;3.05;2.85;;;;;;;21.71;47.94;101370.16;4985450;28;20015;-23
2022/06/02 11:26:03;;;;;;;3.05;2.75;;;;;;;21.73;48.32;101378.16;4972793;28;20049;-23
2022/06/02 11:28:53;;;;;;;3.13;2.92;;;;;;;21.79;47.08;101376.09;4990036;28;20018;-24
2022/06/02 11:31:26;;;;;;;2.60;2.40;;;;;;;21.77;48.46;101366.34;4992585;28;20038;-24
2022/06/02 11:34:10;;;;;;;4.15;3.33;;;;;;;21.80;48.98;101371.59;4990094;28;20030;-24
2022/06/02 11:36:42;;;;;;;3.00;2.80;;;;;;;21.82;48.34;101358.09;4990036;28;20388;-24
2022/06/02 11:39:20;;;;;;;2.55;2.45;;;;;;;21.95;47.89;101361.09;4993109;28;20171;-24
2022/06/02 11:41:52;;;;;;;2.90;2.70;;;;;;;22.09;48.69;101364.00;4956798;28;20026;-24
2022/06/02 11:44:35;;;;;;;3.28;2.97;;;;;;;22.15;48.32;101366.38;4992026;28;20050;-23
2022/06/02 11:47:35;;;;;;;2.78;2.58;;;;;;;22.21;48.37;101370.59;4977527;28;20381;-23
2022/06/02 11:50:20;;;;;;;3.28;3.00;;;;;;;22.32;48.15;101366.53;4976181;28;20555;-23
2022/06/02 11:53:01;;;;;;;2.90;2.70;;;;;;;22.30;47.99;101366.63;4971988;28;20034;-23
2022/06/02 11:55:33;;;;;;;2.92;2.72;;;;;;;22.23;47.59;101362.47;4992545;28;20084;-23
2022/06/02 11:58:01;;;;;;;2.95;2.63;;;;;;;22.21;47.43;101367.06;4986604;28;20221;-24
2022/06/02 12:00:46;;;;;;;2.90;2.70;;;;;;;22.19;47.01;101361.75;4975726;28;20030;-24
2022/06/02 12:03:21;;;;;;;2.50;2.30;;;;;;;22.15;47.27;101355.66;4992192;28;20030;-23
2022/06/02 12:06:22;;;;;;;2.97;2.78;;;;;;;22.09;46.49;101355.97;4993204;28;20080;-23
2022/06/02 12:08:50;;;;;;;;;;;;;;;22.06;46.59;101356.09;4965576;28;20053;-23
2022/06/02 12:11:45;;;;;;;2.47;2.28;;;;;;;22.04;45.95;101358.00;4990722;28;19925;-23
2022/06/02 12:14:32;;;;;;;2.92;2.72;;;;;;;22.12;46.97;101361.19;4992355;28;20034;-23
2022/06/02 12:17:22;;;;;;;2.70;2.60;;;;;;;22.18;46.67;101360.88;4970779;28;20038;-24
2022/06/02 12:20:06;;;;;;;3.28;3.00;;;;;;;22.32;46.31;101362.06;4970565;28;20058;-23
2022/06/02 12:23:05;;;;;;;2.80;2.60;;;;;;;22.34;46.52;101360.13;4987853;28;20034;-23
2022/06/02 12:25:49;;;;;;;2.97;2.78;;;;;;;22.34;47.22;101362.84;4974876;28;20255;-23
2022/06/02 12:28:33;;;;;;;2.53;2.40;;;;;;;22.33;47.24;101358.41;4989504;28;20061;-23
2022/06/02 12:31:30;;;;;;;2.67;2.47;;;;;;;22.30;47.80;101363.91;4973489;28;20106;-23
2022/06/02 12:34:23;;;;;;;2.67;2.47;;;;;;;22.26;46.67;101359.66;4991727;28;20373;-23
2022/06/02 12:37:26;;;;;;;2.78;2.58;;;;;;;22.18;46.41;101350.13;4986052;28;20058;-23
2022/06/02 12:40:17;;;;;;;2.58;2.38;;;;;;;22.19;46.49;101348.31;4965971;28;20022;-23
2022/06/02 12:43:01;;;;;;;2.80;2.58;;;;;;;22.22;46.47;101355.38;4970288;28;20105;-23
2022/06/02 12:45:45;;;;;;;2.85;2.70;;;;;;;22.23;47.41;101351.72;4990267;28;20029;-23
2022/06/02 12:48:31;;;;;;;3.00;2.80;;;;;;;22.22;47.22;101352.69;4990811;28;20081;-23
2022/06/02 12:51:11;;;;;;;2.53;2.38;;;;;;;22.20;47.08;101347.38;4989584;28;20037;-23
2022/06/02 12:54:07;;;;;;;2.90;2.70;;;;;;;22.20;46.90;101346.53;4987325;28;20452;-23
2022/06/02 12:56:55;;;;;;;2.70;2.50;;;;;;;22.14;46.46;101343.16;4989984;28;20030;-23
2022/06/02 12:59:53;;;;;;;2.78;2.60;;;;;;;22.14;46.55;101345.84;4989259;28;20050;-23
2022/06/02 13:02:27;;;;;;;2.63;2.53;;;;;;;22.16;46.50;101340.41;4990813;28;20025;-23
2022/06/02 13:05:30;;;;;;;2.88;2.67;;;;;;;22.14;46.67;101350.38;4968756;28;20030;-23
2022/06/02 13:08:31;;;;;;;3.15;2.95;;;;;;;22.13;46.79;101344.13;4992185;28;20439;-23
2022/06/02 13:11:13;;;;;;;3.13;2.92;;;;;;;22.17;47.00;101348.41;4973387;28;20026;-23
2022/06/02 13:13:53;;;;;;;2.85;2.65;;;;;;;22.16;46.95;101333.22;4988255;28;20026;-23
2022/06/02 13:16:56;;;;;;;3.10;2.67;;;;;;;22.21;46.82;101340.19;4975944;28;20033;-23